Time;durP1;ratioP1;P1;durP2;ratioP2;P2;SDS_P1;SDS_P2;PMS_P1;PMS_P2;Temp;Humidity;BMP_temperature;BMP_pressure;BME280_temperature;BME280_humidity;BME280_pressure;Samples;Min_cycle;Max_cycle;Signal;HPM_P1;HPM_P2
2023/01/24 00:00:46;;;;;;;4.20;1.20;;;28.80;99.90;;;;;;5082262;28;20032;-69
2023/01/24 00:03:13;;;;;;;3.33;1.23;;;29.00;99.90;;;;;;5095255;28;20110;-70
2023/01/24 00:05:42;;;;;;;3.60;1.08;;;29.40;99.90;;;;;;5098526;28;20107;-71
2023/01/24 00:08:12;;;;;;;5.70;1.38;;;29.20;99.90;;;;;;5098040;28;20020;-69
2023/01/24 00:10:40;;;;;;;2.42;1.27;;;29.40;99.90;;;;;;5092430;28;20024;-70
2023/01/24 00:13:08;;;;;;;4.70;1.50;;;29.40;99.90;;;;;;5090406;28;20149;-67
2023/01/24 00:15:35;;;;;;;3.58;2.03;;;29.40;99.90;;;;;;5090635;28;20298;-71
2023/01/24 00:18:02;;;;;;;8.70;2.20;;;29.90;99.90;;;;;;4387819;28;10000084;-67
2023/01/24 00:20:29;;;;;;;3.85;1.65;;;30.10;99.90;;;;;;5090050;28;20612;-71
2023/01/24 00:22:56;;;;;;;3.88;1.92;;;30.10;99.00;;;;;;5107446;28;20800;-67
2023/01/24 00:25:23;;;;;;;3.97;1.20;;;30.20;99.80;;;;;;5108730;28;20487;-70
2023/01/24 00:27:50;;;;;;;3.80;2.03;;;30.30;99.30;;;;;;5108132;28;20034;-70
2023/01/24 00:30:17;;;;;;;4.35;1.92;;;30.20;99.70;;;;;;5089762;28;20057;-69
2023/01/24 00:32:44;;;;;;;2.92;1.67;;;30.40;98.90;;;;;;5109503;28;20034;-70
2023/01/24 00:35:11;;;;;;;4.40;2.00;;;30.20;99.00;;;;;;5107130;28;20460;-69
2023/01/24 00:37:38;;;;;;;2.90;1.70;;;29.70;99.20;;;;;;5106358;28;20026;-67
2023/01/24 00:40:08;;;;;;;3.08;2.38;;;29.80;99.60;;;;;;5108290;28;20224;-71
2023/01/24 00:42:35;;;;;;;3.63;2.13;;;29.80;98.90;;;;;;5101818;28;20058;-70
2023/01/24 00:45:02;;;;;;;3.97;2.30;;;30.00;98.30;;;;;;5107619;28;20046;-70
2023/01/24 00:47:29;;;;;;;5.15;3.17;;;30.10;98.70;;;;;;5107274;28;20031;-66
2023/01/24 00:49:56;;;;;;;3.53;2.30;;;30.50;99.10;;;;;;5115723;27;20022;-67
2023/01/24 00:52:23;;;;;;;4.07;3.00;;;30.50;98.50;;;;;;5107728;28;20015;-71
2023/01/24 00:54:50;;;;;;;6.20;2.88;;;30.80;98.10;;;;;;5107661;28;20391;-71
2023/01/24 00:57:16;;;;;;;3.17;2.30;;;31.00;98.00;;;;;;5104034;28;20024;-68
2023/01/24 00:59:43;;;;;;;3.50;2.10;;;31.50;97.60;;;;;;5101837;28;20024;-68
2023/01/24 01:02:10;;;;;;;3.67;2.22;;;31.70;97.30;;;;;;5107325;28;20100;-68
2023/01/24 01:04:37;;;;;;;3.92;2.15;;;31.50;97.10;;;;;;5108758;28;20032;-70
2023/01/24 01:07:04;;;;;;;3.35;1.98;;;31.90;97.60;;;;;;5107562;28;20339;-69
2023/01/24 01:09:31;;;;;;;3.03;2.20;;;31.90;97.20;;;;;;5105606;28;20209;-70
2023/01/24 01:11:58;;;;;;;4.15;2.42;;;31.80;97.20;;;;;;5106046;28;20492;-68
2023/01/24 01:14:25;;;;;;;2.42;1.75;;;32.00;96.70;;;;;;5106964;28;20024;-69
2023/01/24 01:16:52;;;;;;;3.60;2.10;;;32.10;97.00;;;;;;5104934;28;20024;-69
2023/01/24 01:19:19;;;;;;;4.60;2.40;;;32.20;95.60;;;;;;5104924;28;20027;-70
2023/01/24 01:21:45;;;;;;;3.45;1.85;;;32.00;96.50;;;;;;5095535;28;20044;-70
2023/01/24 01:24:12;;;;;;;2.58;2.08;;;32.50;95.80;;;;;;5087942;28;20111;-69
2023/01/24 01:26:39;;;;;;;4.20;2.35;;;32.50;96.60;;;;;;5087516;28;20023;-65
2023/01/24 01:29:06;;;;;;;6.20;3.03;;;32.70;95.70;;;;;;5087844;28;20432;-70
2023/01/24 01:31:33;;;;;;;4.97;2.50;;;33.00;95.70;;;;;;5089696;28;20550;-70
2023/01/24 01:34:00;;;;;;;4.32;1.92;;;33.20;94.40;;;;;;5087344;28;20060;-71
2023/01/24 01:36:30;;;;;;;3.05;1.80;;;33.30;94.70;;;;;;5088771;28;20016;-70
2023/01/24 01:38:57;;;;;;;3.60;2.00;;;33.20;94.10;;;;;;5086160;28;20427;-68
2023/01/24 01:41:24;;;;;;;3.30;1.90;;;33.50;94.20;;;;;;5089900;28;20047;-70
2023/01/24 01:46:46;;;;;;;3.40;1.92;;;33.80;93.80;;;;;;5086555;28;20039;-68
2023/01/24 01:49:23;;;;;;;2.45;2.05;;;33.70;94.30;;;;;;5087394;28;20023;-70
2023/01/24 01:51:54;;;;;;;4.50;2.70;;;33.80;93.30;;;;;;5081985;28;20066;-72
2023/01/24 01:54:48;;;;;;;4.53;2.70;;;33.80;93.50;;;;;;5080210;28;20031;-67
2023/01/24 01:57:28;;;;;;;5.28;2.80;;;33.90;93.10;;;;;;5084832;28;20280;-68
2023/01/24 02:00:27;;;;;;;4.00;2.30;;;33.60;93.10;;;;;;5086947;28;20027;-68
2023/01/24 02:06:00;;;;;;;2.25;1.98;;;33.90;93.40;;;;;;5087174;28;20027;-68
2023/01/24 02:08:28;;;;;;;3.30;2.20;;;33.90;92.00;;;;;;5086781;28;20115;-66
2023/01/24 02:13:43;;;;;;;3.58;2.60;;;34.60;91.80;;;;;;5082996;28;20521;-69
2023/01/24 02:16:12;;;;;;;3.00;2.28;;;34.90;90.80;;;;;;5095174;28;20051;-70
2023/01/24 02:18:42;;;;;;;2.65;2.28;;;34.90;91.90;;;;;;5087949;28;20046;-71
2023/01/24 02:21:16;;;;;;;2.95;2.40;;;34.80;92.40;;;;;;5090120;28;20071;-68
2023/01/24 02:23:46;;;;;;;2.90;2.20;;;34.60;92.50;;;;;;5082036;28;20066;-69
2023/01/24 02:26:28;;;;;;;4.10;2.42;;;34.20;92.20;;;;;;5086980;28;20105;-68
2023/01/24 02:28:58;;;;;;;5.68;3.63;;;34.50;91.20;;;;;;5085782;28;20024;-65
2023/01/24 02:31:25;;;;;;;6.30;3.50;;;34.80;90.40;;;;;;5087516;28;20141;-70
2023/01/24 02:33:52;;;;;;;4.88;3.38;;;35.00;90.80;;;;;;5083834;28;20035;-69
2023/01/24 02:36:34;;;;;;;4.90;3.47;;;35.10;91.90;;;;;;5085579;28;20575;-66
2023/01/24 02:39:10;;;;;;;;;;;35.10;91.90;;;;;;5087402;28;20020;-69
2023/01/24 02:41:45;;;;;;;7.43;2.92;;;35.30;91.70;;;;;;5085226;28;19912;-68
2023/01/24 02:44:30;;;;;;;5.80;4.40;;;35.60;90.40;;;;;;5087234;28;20488;-69
2023/01/24 02:46:56;;;;;;;3.85;2.60;;;35.50;91.60;;;;;;5087743;28;20419;-66
2023/01/24 02:49:23;;;;;;;4.00;2.83;;;35.70;91.80;;;;;;5088972;28;20019;-70
2023/01/24 02:54:55;;;;;;;5.25;3.05;;;35.80;90.80;;;;;;5067829;28;20111;-67
2023/01/24 03:00:11;;;;;;;4.47;2.88;;;35.80;90.30;;;;;;5062884;28;20070;-68
2023/01/24 03:02:39;;;;;;;3.42;2.40;;;35.90;90.50;;;;;;5069127;28;20060;-68
2023/01/24 03:05:06;;;;;;;3.42;2.63;;;36.10;89.80;;;;;;5068093;28;20033;-68
2023/01/24 03:07:41;;;;;;;3.38;2.70;;;36.50;89.20;;;;;;5062939;28;20107;-66
2023/01/24 03:10:13;;;;;;;2.47;2.28;;;36.50;87.80;;;;;;5061468;28;20328;-68
2023/01/24 03:34:51;;;;;;;3.60;2.42;;;36.30;88.00;;;;;;5087380;28;20077;-69
2023/01/24 03:40:12;;;;;;;3.75;2.45;;;34.70;86.70;;;;;;5086452;28;20031;-70
2023/01/24 03:42:48;;;;;;;3.55;2.60;;;34.20;89.80;;;;;;5085974;28;20027;-71
2023/01/24 03:45:33;;;;;;;2.63;2.40;;;34.90;90.30;;;;;;5079288;28;20093;-70
2023/01/24 03:48:03;;;;;;;2.38;2.17;;;35.40;90.30;;;;;;5084756;28;20353;-68
2023/01/24 03:53:22;;;;;;;2.58;2.17;;;36.40;86.00;;;;;;5087470;28;20082;-70
2023/01/24 03:55:54;;;;;;;2.65;2.17;;;35.70;85.10;;;;;;5088652;28;20034;-69
2023/01/24 03:58:22;;;;;;;2.20;1.90;;;35.40;85.80;;;;;;5084772;28;20112;-65
2023/01/24 04:00:49;;;;;;;2.83;2.45;;;35.10;85.20;;;;;;5088914;28;20041;-65
2023/01/24 04:03:16;;;;;;;2.95;2.15;;;34.80;84.90;;;;;;5085805;28;20031;-66
2023/01/24 04:05:43;;;;;;;3.15;2.25;;;35.20;83.70;;;;;;5086239;28;20104;-66
2023/01/24 04:08:10;;;;;;;3.65;2.53;;;35.30;83.50;;;;;;5086158;28;20080;-63
2023/01/24 04:10:37;;;;;;;2.28;2.08;;;35.60;87.30;;;;;;5087987;28;20106;-68
2023/01/24 04:13:04;;;;;;;2.78;2.35;;;36.20;85.90;;;;;;5088189;28;20024;-65
2023/01/24 04:15:32;;;;;;;2.63;2.13;;;36.80;79.90;;;;;;5087595;28;20028;-66
2023/01/24 04:18:01;;;;;;;3.65;2.42;;;35.80;81.60;;;;;;5086967;28;20081;-65
2023/01/24 04:20:31;;;;;;;3.10;2.67;;;34.50;83.00;;;;;;5087794;28;20055;-66
2023/01/24 04:23:01;;;;;;;3.38;2.40;;;34.00;84.90;;;;;;5083317;28;20032;-64
2023/01/24 04:25:29;;;;;;;2.97;2.67;;;33.70;86.30;;;;;;5083517;28;20111;-65
2023/01/24 04:27:56;;;;;;;3.10;2.88;;;33.80;88.50;;;;;;5082878;28;20023;-69
2023/01/24 04:30:23;;;;;;;2.70;2.50;;;34.90;88.10;;;;;;5082452;28;20031;-65
2023/01/24 04:32:51;;;;;;;8.20;6.07;;;35.90;87.40;;;;;;5065432;28;20284;-66
2023/01/24 04:35:21;;;;;;;3.33;2.72;;;35.90;86.90;;;;;;5087367;28;20040;-65
2023/01/24 04:37:48;;;;;;;4.25;2.47;;;36.20;83.40;;;;;;5087635;28;20020;-66
2023/01/24 04:40:15;;;;;;;3.50;2.60;;;36.10;83.00;;;;;;5087538;28;20020;-70
2023/01/24 04:42:43;;;;;;;2.78;2.58;;;35.70;80.60;;;;;;5083024;28;20504;-67
2023/01/24 04:45:13;;;;;;;4.72;3.97;;;34.80;84.10;;;;;;5079886;28;20542;-68
2023/01/24 04:47:40;;;;;;;6.53;5.82;;;34.50;82.60;;;;;;5085152;28;20191;-67
2023/01/24 04:50:08;;;;;;;5.25;2.55;;;34.20;87.80;;;;;;5086399;28;20022;-66
2023/01/24 04:52:34;;;;;;;2.83;2.17;;;34.20;88.70;;;;;;5085611;28;20027;-65
2023/01/24 04:55:01;;;;;;;3.58;2.30;;;34.90;89.20;;;;;;5070227;28;20035;-67
2023/01/24 04:57:31;;;;;;;4.93;2.40;;;35.40;86.90;;;;;;5086743;28;20036;-64
2023/01/24 04:59:58;;;;;;;5.00;2.90;;;35.60;88.80;;;;;;5085143;28;20050;-67
2023/01/24 05:02:25;;;;;;;3.72;2.70;;;35.80;90.30;;;;;;5086672;28;20038;-66
2023/01/24 05:04:52;;;;;;;5.07;3.05;;;35.50;90.60;;;;;;5076539;28;20020;-64
2023/01/24 05:07:19;;;;;;;3.53;3.15;;;35.00;90.70;;;;;;5086220;28;20484;-67
2023/01/24 05:09:46;;;;;;;4.13;3.05;;;34.90;91.50;;;;;;5081539;28;20024;-67
2023/01/24 05:12:13;;;;;;;3.67;2.97;;;35.30;91.20;;;;;;5081711;28;20260;-68
2023/01/24 05:14:40;;;;;;;3.70;3.33;;;35.80;90.60;;;;;;5086895;28;20510;-68
2023/01/24 05:17:06;;;;;;;5.47;3.55;;;36.10;90.50;;;;;;5080910;28;20395;-63
2023/01/24 05:19:33;;;;;;;4.95;4.25;;;36.10;90.90;;;;;;5084315;28;20027;-62
2023/01/24 05:22:00;;;;;;;4.63;3.85;;;36.30;90.00;;;;;;5080553;28;20435;-63
2023/01/24 05:24:27;;;;;;;5.30;4.10;;;36.90;90.00;;;;;;5088057;28;20520;-60
2023/01/24 05:26:54;;;;;;;7.10;4.32;;;37.50;89.00;;;;;;5082395;28;20024;-62
2023/01/24 05:29:21;;;;;;;4.78;4.03;;;37.70;88.50;;;;;;5082344;28;20030;-60
2023/01/24 05:31:48;;;;;;;5.90;4.43;;;37.40;87.60;;;;;;5078862;28;20399;-63
2023/01/24 05:34:15;;;;;;;5.13;4.00;;;37.10;87.80;;;;;;5074890;28;20032;-62
2023/01/24 05:36:42;;;;;;;4.68;4.28;;;37.00;88.40;;;;;;5073316;28;20024;-61
2023/01/24 05:39:09;;;;;;;6.20;4.78;;;36.00;89.00;;;;;;5072224;28;20020;-60
2023/01/24 05:41:36;;;;;;;5.35;4.65;;;34.80;89.80;;;;;;5077758;28;20078;-64
2023/01/24 05:44:03;;;;;;;6.70;5.00;;;33.80;90.70;;;;;;5076755;28;20034;-65
2023/01/24 05:46:30;;;;;;;6.05;4.57;;;33.40;91.50;;;;;;5075088;28;20028;-62
2023/01/24 05:48:56;;;;;;;4.90;4.50;;;34.20;91.60;;;;;;5074312;28;20481;-63
2023/01/24 05:51:23;;;;;;;5.65;4.93;;;35.10;91.10;;;;;;5077664;28;20069;-61
2023/01/24 05:53:50;;;;;;;6.07;4.10;;;35.90;90.10;;;;;;5074079;28;20021;-64
2023/01/24 05:56:19;;;;;;;4.82;4.03;;;36.00;90.00;;;;;;5075671;28;20552;-65
2023/01/24 05:58:47;;;;;;;5.25;4.25;;;35.10;90.50;;;;;;5075934;28;20034;-62
2023/01/24 06:01:20;;;;;;;4.95;4.30;;;35.10;90.50;;;;;;5078670;28;20028;-62
2023/01/24 06:03:49;;;;;;;5.15;4.55;;;35.70;90.60;;;;;;5077212;28;20050;-64
2023/01/24 06:06:18;;;;;;;4.88;3.85;;;36.70;89.50;;;;;;5080632;28;20031;-65
2023/01/24 06:08:46;;;;;;;5.75;4.68;;;36.90;87.00;;;;;;5076347;28;20035;-61
2023/01/24 06:11:25;;;;;;;5.70;4.07;;;37.40;88.20;;;;;;5076297;28;20024;-65
2023/01/24 06:13:55;;;;;;;4.30;3.90;;;37.80;86.50;;;;;;5077824;28;20032;-64
2023/01/24 06:16:24;;;;;;;6.20;4.07;;;37.70;86.40;;;;;;5078079;28;20593;-63
2023/01/24 06:18:52;;;;;;;7.25;6.05;;;37.80;85.30;;;;;;5075021;28;20073;-60
2023/01/24 06:21:38;;;;;;;4.15;3.50;;;38.00;86.80;;;;;;5081918;28;20056;-65
2023/01/24 06:24:06;;;;;;;8.45;6.68;;;37.10;86.40;;;;;;5081238;28;20028;-66
2023/01/24 06:26:33;;;;;;;4.00;3.60;;;36.50;87.50;;;;;;5081318;28;20107;-65
2023/01/24 06:29:00;;;;;;;3.75;3.38;;;36.60;87.90;;;;;;5080258;28;20016;-61
2023/01/24 06:31:58;;;;;;;5.43;4.20;;;37.10;86.70;;;;;;5084138;28;20024;-62
2023/01/24 06:35:03;;;;;;;5.30;3.90;;;37.30;88.00;;;;;;5080981;28;20039;-65
2023/01/24 06:37:45;;;;;;;4.95;3.05;;;37.10;87.40;;;;;;5023702;28;20141;-64
2023/01/24 06:40:14;;;;;;;5.63;3.30;;;35.50;90.20;;;;;;5016022;28;20037;-61
2023/01/24 06:42:42;;;;;;;3.22;2.63;;;35.80;90.00;;;;;;5017921;28;20142;-61
2023/01/24 06:45:10;;;;;;;4.20;2.90;;;35.10;90.10;;;;;;5022003;28;20494;-62
2023/01/24 06:47:37;;;;;;;3.17;2.78;;;34.70;90.70;;;;;;5020721;28;20034;-67
2023/01/24 06:50:06;;;;;;;4.40;3.20;;;35.00;90.50;;;;;;5019843;28;20580;-61
2023/01/24 06:52:33;;;;;;;3.08;2.65;;;35.30;90.00;;;;;;5017472;28;20036;-62
2023/01/24 06:54:59;;;;;;;3.40;2.80;;;35.20;90.00;;;;;;5022046;28;20738;-65
2023/01/24 06:57:35;;;;;;;6.18;3.28;;;35.20;90.60;;;;;;5020119;28;20036;-62
2023/01/24 07:00:04;;;;;;;4.18;3.40;;;35.30;89.90;;;;;;5016165;28;20060;-66
2023/01/24 07:02:31;;;;;;;3.75;3.05;;;35.30;89.70;;;;;;5020016;28;20132;-68
2023/01/24 07:04:58;;;;;;;3.88;3.30;;;35.50;90.00;;;;;;5022859;28;20080;-64
2023/01/24 07:07:25;;;;;;;3.97;3.30;;;35.80;90.30;;;;;;5020111;28;20041;-69
2023/01/24 07:09:51;;;;;;;3.08;2.78;;;36.00;89.00;;;;;;5018495;28;20172;-62
2023/01/24 07:12:18;;;;;;;7.15;3.38;;;35.80;89.50;;;;;;5020586;28;20080;-65
2023/01/24 07:14:45;;;;;;;5.10;3.08;;;35.60;90.20;;;;;;5061976;28;20115;-66
2023/01/24 07:17:12;;;;;;;3.50;2.80;;;35.20;90.00;;;;;;5083150;28;20064;-67
2023/01/24 07:19:39;;;;;;;3.70;3.33;;;34.10;90.70;;;;;;5083986;28;20024;-61
2023/01/24 07:22:12;;;;;;;6.85;3.10;;;32.90;91.80;;;;;;5093417;28;20039;-66
2023/01/24 07:24:42;;;;;;;5.32;3.47;;;31.90;92.70;;;;;;5087309;28;20027;-62
2023/01/24 07:27:09;;;;;;;5.18;3.75;;;31.40;93.60;;;;;;5097272;28;20070;-68
2023/01/24 07:29:39;;;;;;;4.93;3.72;;;30.80;93.90;;;;;;5100952;28;20016;-62
2023/01/24 07:32:06;;;;;;;5.10;4.18;;;30.00;94.80;;;;;;5102069;28;20043;-65
2023/01/24 07:34:33;;;;;;;4.82;3.47;;;29.60;95.80;;;;;;5092371;28;20076;-66
2023/01/24 07:37:00;;;;;;;5.80;3.85;;;29.10;96.50;;;;;;5099770;28;20088;-68
2023/01/24 07:39:29;;;;;;;5.38;3.90;;;28.90;97.10;;;;;;5103781;28;20031;-75
2023/01/24 07:41:56;;;;;;;5.30;4.18;;;28.80;97.70;;;;;;5101466;28;20021;-64
2023/01/24 07:44:23;;;;;;;6.68;4.38;;;28.60;97.50;;;;;;5090318;28;20495;-64
2023/01/24 07:46:50;;;;;;;4.90;4.40;;;28.40;98.10;;;;;;5103765;28;20023;-64
2023/01/24 07:49:17;;;;;;;4.18;3.75;;;28.30;99.30;;;;;;5101395;28;20735;-65
2023/01/24 07:51:48;;;;;;;6.38;4.35;;;28.10;99.90;;;;;;5096769;28;20024;-65
2023/01/24 07:54:18;;;;;;;6.82;4.35;;;28.00;99.90;;;;;;5106150;28;20019;-61
2023/01/24 07:56:45;;;;;;;6.22;4.88;;;27.60;99.90;;;;;;5100835;28;20023;-66
2023/01/24 07:59:12;;;;;;;5.95;5.07;;;27.20;99.90;;;;;;5105144;28;20024;-66
2023/01/24 08:01:39;;;;;;;8.60;5.70;;;27.00;99.90;;;;;;5099595;28;20028;-63
2023/01/24 08:04:06;;;;;;;6.80;4.93;;;26.70;99.90;;;;;;5103136;28;20372;-63
2023/01/24 08:06:32;;;;;;;6.45;4.38;;;26.70;99.90;;;;;;5098114;28;20405;-66
2023/01/24 08:09:02;;;;;;;5.32;4.82;;;26.50;99.90;;;;;;5098052;28;20051;-64
2023/01/24 08:11:29;;;;;;;5.80;4.13;;;26.40;99.90;;;;;;5103208;28;20027;-65
2023/01/24 08:13:56;;;;;;;5.78;4.63;;;26.10;99.90;;;;;;5099382;28;20022;-62
2023/01/24 08:16:25;;;;;;;7.43;5.70;;;25.90;99.90;;;;;;5096287;28;20028;-65
2023/01/24 08:18:53;;;;;;;7.13;5.30;;;25.80;99.90;;;;;;5102502;28;20131;-63
2023/01/24 08:21:20;;;;;;;8.25;5.30;;;25.60;99.90;;;;;;5098182;28;20047;-63
2023/01/24 08:23:47;;;;;;;5.93;4.72;;;25.40;99.90;;;;;;5098936;28;20031;-66
2023/01/24 08:26:14;;;;;;;6.15;4.78;;;25.30;99.90;;;;;;5096726;28;20400;-66
2023/01/24 08:28:41;;;;;;;7.45;5.30;;;24.90;99.90;;;;;;5100729;28;20034;-68
2023/01/24 08:31:08;;;;;;;6.55;4.93;;;24.70;99.90;;;;;;5094420;28;20490;-65
2023/01/24 08:33:37;;;;;;;7.03;5.10;;;24.40;99.90;;;;;;5095797;28;20201;-66
2023/01/24 08:36:05;;;;;;;7.80;4.75;;;24.20;99.90;;;;;;5100329;28;20304;-67
2023/01/24 08:38:32;;;;;;;6.10;5.50;;;24.00;99.90;;;;;;5100129;28;20549;-66
2023/01/24 08:41:02;;;;;;;7.97;5.28;;;23.90;99.90;;;;;;5096152;28;20409;-65
2023/01/24 08:43:29;;;;;;;8.32;5.10;;;23.80;99.90;;;;;;5096118;28;20028;-65
2023/01/24 08:45:56;;;;;;;8.38;4.13;;;23.80;99.90;;;;;;5097817;28;20116;-63
2023/01/24 08:48:23;;;;;;;4.25;3.80;;;23.70;99.90;;;;;;5101503;28;20019;-62
2023/01/24 08:50:50;;;;;;;4.53;3.78;;;23.70;99.90;;;;;;5096487;28;20140;-63
2023/01/24 08:53:19;;;;;;;5.72;3.75;;;23.70;99.90;;;;;;5096428;28;20027;-63
2023/01/24 08:55:49;;;;;;;4.10;3.67;;;23.70;99.90;;;;;;5094611;28;20069;-65
2023/01/24 08:58:17;;;;;;;5.68;3.40;;;23.60;99.90;;;;;;5101394;28;20435;-63
2023/01/24 09:00:44;;;;;;;7.15;3.50;;;23.50;99.90;;;;;;5086098;28;20088;-64
2023/01/24 09:03:14;;;;;;;7.55;3.90;;;23.60;99.90;;;;;;5098927;27;20040;-63
2023/01/24 09:05:41;;;;;;;6.18;4.18;;;23.50;99.90;;;;;;5099239;28;20059;-67
2023/01/24 09:08:08;;;;;;;9.32;4.78;;;23.30;99.90;;;;;;5100766;28;20024;-66
2023/01/24 09:10:35;;;;;;;4.20;3.10;;;23.20;99.90;;;;;;5100317;28;20442;-64
2023/01/24 09:13:04;;;;;;;8.77;4.35;;;23.10;99.90;;;;;;5100336;28;20028;-64
2023/01/24 09:15:31;;;;;;;12.07;5.50;;;23.00;99.90;;;;;;5098537;28;20035;-61
2023/01/24 09:18:02;;;;;;;8.35;5.45;;;23.10;99.90;;;;;;5101314;28;20057;-60
2023/01/24 09:20:29;;;;;;;10.75;5.60;;;23.10;99.90;;;;;;5103559;27;20142;-65
2023/01/24 09:22:56;;;;;;;15.15;7.97;;;23.10;99.90;;;;;;5108711;27;20046;-61
2023/01/24 09:25:23;;;;;;;17.30;9.88;;;23.00;99.90;;;;;;5110212;27;20503;-62
2023/01/24 09:27:56;;;;;;;16.88;10.95;;;22.80;99.90;;;;;;5107140;27;20421;-66
2023/01/24 09:30:24;;;;;;;18.25;11.65;;;22.60;99.90;;;;;;5107142;27;20012;-65
2023/01/24 09:32:51;;;;;;;12.55;8.20;;;22.30;99.90;;;;;;5097765;28;20031;-62
2023/01/24 09:35:18;;;;;;;10.38;5.97;;;21.90;99.90;;;;;;5095254;28;20031;-65
2023/01/24 09:37:45;;;;;;;15.88;4.45;;;21.30;99.90;;;;;;5101805;28;20042;-65
2023/01/24 09:40:41;;;;;;;9.43;3.35;;;20.80;99.90;;;;;;5072806;28;20048;-65
2023/01/24 09:43:26;;;;;;;9.73;3.22;;;20.10;99.90;;;;;;5071407;28;20036;-64
2023/01/24 09:46:04;;;;;;;6.57;3.08;;;19.50;99.90;;;;;;5073635;28;20363;-64
2023/01/24 09:48:33;;;;;;;4.38;2.40;;;19.10;99.90;;;;;;5075133;28;20032;-62
2023/01/24 09:51:29;;;;;;;7.65;2.75;;;18.90;99.90;;;;;;5072728;28;20187;-61
2023/01/24 09:54:00;;;;;;;5.90;3.17;;;18.80;99.90;;;;;;5073565;28;20069;-63
2023/01/24 09:56:38;;;;;;;6.28;2.58;;;18.80;99.90;;;;;;5071816;28;20024;-64
2023/01/24 09:59:14;;;;;;;9.80;3.53;;;18.80;99.90;;;;;;5070443;28;20553;-62
2023/01/24 10:01:41;;;;;;;4.13;3.38;;;19.00;99.90;;;;;;5075196;28;20039;-64
2023/01/24 10:04:19;;;;;;;6.13;4.40;;;19.00;99.90;;;;;;5056639;28;20543;-63
2023/01/24 10:07:25;;;;;;;5.88;4.15;;;19.00;99.90;;;;;;5072374;28;20068;-61
2023/01/24 10:10:06;;;;;;;5.75;4.88;;;19.10;99.90;;;;;;5072382;28;20016;-62
2023/01/24 10:12:57;;;;;;;7.68;5.22;;;19.20;99.90;;;;;;5097873;28;20024;-60
2023/01/24 10:15:30;;;;;;;5.93;5.00;;;19.30;99.90;;;;;;5093163;28;20109;-61
2023/01/24 10:18:11;;;;;;;6.20;4.93;;;19.40;99.90;;;;;;5097236;28;20507;-64
2023/01/24 10:21:13;;;;;;;5.13;4.68;;;19.50;99.90;;;;;;5122774;22;20052;-64
2023/01/24 10:23:52;;;;;;;7.75;5.97;;;19.60;99.90;;;;;;5003909;28;21023;-65
2023/01/24 10:26:21;;;;;;;7.45;5.75;;;19.70;99.90;;;;;;5002250;28;20029;-63
2023/01/24 10:28:53;;;;;;;9.98;6.55;;;19.70;99.90;;;;;;5001734;28;20030;-63
2023/01/24 10:31:36;;;;;;;12.13;7.47;;;19.70;99.90;;;;;;5004160;28;20037;-66
2023/01/24 10:34:18;;;;;;;8.07;4.63;;;19.70;99.90;;;;;;5003738;28;20145;-67
2023/01/24 10:36:57;;;;;;;7.72;4.60;;;19.50;99.90;;;;;;5001267;28;20041;-60
2023/01/24 10:39:27;;;;;;;7.35;4.68;;;19.40;99.90;;;;;;4992224;28;20300;-62
2023/01/24 10:41:54;;;;;;;5.50;4.18;;;19.30;99.90;;;;;;4995508;28;20029;-62
2023/01/24 10:44:34;;;;;;;7.43;4.75;;;19.30;99.90;;;;;;4997664;28;20560;-62
2023/01/24 10:47:27;;;;;;;5.35;3.97;;;19.20;99.90;;;;;;5001090;28;20115;-60
2023/01/24 10:50:02;;;;;;;6.00;3.33;;;19.30;99.90;;;;;;5000353;28;20494;-61
2023/01/24 10:52:29;;;;;;;3.45;2.30;;;19.30;99.90;;;;;;4993474;28;20030;-65
2023/01/24 10:55:01;;;;;;;3.42;2.28;;;19.30;99.90;;;;;;4996570;28;20046;-62
2023/01/24 10:57:31;;;;;;;4.18;1.83;;;19.30;99.90;;;;;;4995719;28;20184;-61
2023/01/24 11:00:19;;;;;;;2.95;1.98;;;19.30;99.90;;;;;;5017433;28;20806;-60
2023/01/24 11:03:21;;;;;;;8.73;3.15;;;19.20;99.90;;;;;;5071606;28;20054;-63
2023/01/24 11:05:51;;;;;;;3.10;1.95;;;19.20;99.90;;;;;;5082728;28;20019;-62
2023/01/24 11:08:33;;;;;;;3.15;2.58;;;19.30;99.90;;;;;;5087130;28;20024;-61
2023/01/24 11:11:02;;;;;;;3.95;3.05;;;19.20;99.90;;;;;;5075284;28;20024;-61
2023/01/24 11:13:39;;;;;;;3.92;3.45;;;19.20;99.90;;;;;;5093393;28;20059;-63
2023/01/24 11:16:17;;;;;;;3.75;2.78;;;19.30;99.90;;;;;;5091171;28;20035;-60
2023/01/24 11:18:55;;;;;;;2.97;2.42;;;19.40;99.90;;;;;;5082776;28;20031;-64
2023/01/24 11:21:22;;;;;;;3.03;2.67;;;19.40;99.90;;;;;;5073120;28;20430;-62
2023/01/24 11:24:07;;;;;;;5.68;3.13;;;19.50;99.90;;;;;;5060271;28;20026;-61
2023/01/24 11:26:38;;;;;;;4.53;3.00;;;19.30;99.90;;;;;;5055623;28;20554;-61
2023/01/24 11:29:15;;;;;;;3.40;3.08;;;19.30;99.90;;;;;;5071254;28;20070;-61
2023/01/24 11:34:44;;;;;;;3.53;3.05;;;19.30;99.90;;;;;;5065582;28;20053;-60
2023/01/24 11:37:32;;;;;;;5.00;3.38;;;19.20;99.90;;;;;;5062837;28;20025;-61
2023/01/24 11:40:28;;;;;;;4.38;3.20;;;19.30;99.90;;;;;;5078286;28;20032;-62
2023/01/24 11:43:22;;;;;;;3.90;3.45;;;19.40;99.90;;;;;;5044128;28;20063;-60
2023/01/24 11:45:58;;;;;;;5.70;3.33;;;19.50;99.90;;;;;;5074005;28;20035;-60
2023/01/24 11:48:44;;;;;;;4.47;3.25;;;19.30;99.90;;;;;;5067840;28;20416;-60
2023/01/24 11:51:33;;;;;;;6.47;3.75;;;19.30;99.90;;;;;;5085458;28;20028;-60
2023/01/24 11:54:13;;;;;;;5.05;3.80;;;19.20;99.90;;;;;;5067871;28;20845;-61
2023/01/24 11:57:02;;;;;;;5.78;4.15;;;19.10;99.90;;;;;;5079678;28;20020;-60
2023/01/24 12:00:07;;;;;;;5.97;3.80;;;18.90;99.90;;;;;;5064869;28;20071;-62
2023/01/24 12:02:42;;;;;;;8.80;4.68;;;18.90;99.90;;;;;;4970999;28;20035;-62
2023/01/24 12:05:32;;;;;;;4.85;4.35;;;18.90;99.90;;;;;;4971387;28;20061;-62
2023/01/24 12:08:22;;;;;;;6.63;4.20;;;18.90;99.90;;;;;;4973694;28;20517;-61
2023/01/24 12:11:07;;;;;;;6.95;5.03;;;18.80;99.90;;;;;;4972715;28;20041;-60
2023/01/24 12:13:39;;;;;;;10.30;5.95;;;18.70;99.90;;;;;;4967064;28;20571;-60
2023/01/24 12:16:27;;;;;;;7.43;4.82;;;18.70;99.90;;;;;;4973965;28;20142;-60
2023/01/24 12:19:12;;;;;;;7.85;4.72;;;18.60;99.90;;;;;;4974464;28;20035;-62
2023/01/24 12:21:42;;;;;;;7.18;4.70;;;18.60;99.90;;;;;;4988578;28;20046;-61
2023/01/24 12:24:27;;;;;;;6.45;4.80;;;18.50;99.90;;;;;;4990915;28;20112;-63
2023/01/24 12:26:57;;;;;;;5.72;5.05;;;18.50;99.90;;;;;;4988679;28;20553;-61
2023/01/24 12:29:33;;;;;;;5.32;4.45;;;18.50;99.90;;;;;;4988633;28;20099;-60
2023/01/24 12:32:06;;;;;;;5.82;4.22;;;18.40;99.90;;;;;;4987013;28;20330;-62
2023/01/24 12:34:56;;;;;;;4.97;3.90;;;18.30;99.90;;;;;;4987471;28;20066;-62
2023/01/24 12:37:36;;;;;;;6.28;4.22;;;18.40;99.90;;;;;;4984787;28;20525;-61
2023/01/24 12:40:12;;;;;;;7.50;3.90;;;18.30;99.90;;;;;;5039369;28;20053;-62
2023/01/24 12:42:51;;;;;;;5.28;3.75;;;18.30;99.90;;;;;;5058770;28;20029;-62
2023/01/24 12:45:47;;;;;;;8.00;4.20;;;18.20;99.90;;;;;;5065865;28;20047;-63
2023/01/24 12:48:32;;;;;;;4.88;3.83;;;18.20;99.90;;;;;;5058943;28;20904;-61
2023/01/24 12:51:17;;;;;;;6.07;3.63;;;18.10;99.90;;;;;;5064370;28;20023;-62
2023/01/24 12:54:04;;;;;;;5.10;3.47;;;18.00;99.90;;;;;;5067901;28;20081;-64
2023/01/24 12:57:12;;;;;;;5.50;4.07;;;17.90;99.90;;;;;;5071303;28;20027;-62
2023/01/24 12:59:39;;;;;;;4.57;4.03;;;17.90;99.90;;;;;;4997816;28;20038;-63
2023/01/24 13:02:30;;;;;;;5.15;3.97;;;17.90;99.90;;;;;;4997060;28;20038;-62
2023/01/24 13:05:16;;;;;;;5.22;3.30;;;17.80;99.90;;;;;;5000190;28;20038;-61
2023/01/24 13:08:22;;;;;;;7.60;4.25;;;17.70;99.90;;;;;;4997670;28;20027;-62
2023/01/24 13:10:55;;;;;;;8.57;6.10;;;17.70;99.90;;;;;;4997550;28;20030;-63
2023/01/24 13:13:36;;;;;;;13.60;12.20;;;17.80;99.90;;;;;;4997574;28;20034;-62
2023/01/24 13:16:16;;;;;;;14.63;13.20;;;17.70;99.90;;;;;;5007422;28;20057;-61
2023/01/24 13:19:15;;;;;;;12.55;9.65;;;17.80;99.90;;;;;;4991898;28;20548;-62
2023/01/24 13:21:54;;;;;;;8.32;6.32;;;17.80;99.90;;;;;;4930183;29;20141;-61
2023/01/24 13:24:36;;;;;;;7.45;5.18;;;17.80;99.90;;;;;;4926526;29;20161;-64
2023/01/24 13:27:39;;;;;;;6.72;4.45;;;17.80;99.90;;;;;;4924853;29;20059;-62
2023/01/24 13:30:19;;;;;;;7.10;4.55;;;17.60;99.90;;;;;;4931333;29;20033;-63
2023/01/24 13:32:47;;;;;;;4.80;4.20;;;17.60;99.90;;;;;;4925231;29;20134;-63
2023/01/24 13:35:19;;;;;;;7.00;4.38;;;17.50;99.90;;;;;;4945700;28;20046;-62
2023/01/24 13:38:03;;;;;;;6.68;4.70;;;17.40;99.90;;;;;;4965472;28;20035;-61
2023/01/24 13:40:34;;;;;;;6.80;4.90;;;17.40;99.90;;;;;;4964501;28;20183;-62
2023/01/24 13:43:03;;;;;;;8.18;5.43;;;17.40;99.90;;;;;;4962675;28;20037;-63
2023/01/24 13:45:36;;;;;;;6.72;5.45;;;17.30;99.90;;;;;;4963670;28;20091;-62
2023/01/24 13:48:26;;;;;;;5.05;4.32;;;17.30;99.90;;;;;;4962083;28;20499;-60
2023/01/24 13:51:21;;;;;;;7.68;6.38;;;17.30;99.90;;;;;;4964532;28;20030;-61
2023/01/24 13:54:14;;;;;;;8.32;7.13;;;17.20;99.90;;;;;;4967648;28;20033;-62
2023/01/24 13:57:06;;;;;;;10.60;7.23;;;17.30;99.90;;;;;;4965527;28;20074;-61
2023/01/24 13:59:38;;;;;;;9.23;6.68;;;17.20;99.90;;;;;;5048034;28;20504;-62